»·PEaware :: N774DF KSBA-KBUR

N774DF :: KSBA-KBUR

FLIGHT INFORMATION

Flight Status: Arrived
Operator: Privately registered:
United States
More flights under this callsign
Pilot: Greg S. (26686)
Aircraft: BEECH AIRCRAFT BONANZA
(BE36)
More flights by this aircraft type
Origin: KSBA Santa Barbara Mun
United States
Destination: KBUR Bob Hope-Burbank
United States
More flights between these airports :: More routes between these airports
Route:
File this flight plan on PilotEdge
Remarks: CW FF
Altitude:
(Current/Filed)
4,500ft
Speed:
(Current/Filed)
0kts
Departed: 11-Jan-21 09:55 PM
Arrived: 11-Jan-21 10:29 PM
Distance/Time
Traveled:
75nm/0:34
Distance/Time
To Go:
Arrived

Flight Plot

Page will automatically refresh every two minutes.


Map Options




Map Legend


Flown Route
Filed Route
Departure Airport
Arrival Airport
Navaid (VOR, NDB)
Fix

Horizontal Profiles

Position Reports

Time Latitude Longitude Heading Altitude Ground
Speed
11-Jan-21 21:42 34.422694 -119.835599 359 17ft 0kts
11-Jan-21 21:44 34.422694 -119.835599 359 17ft 0kts
11-Jan-21 21:44 34.422694 -119.835599 359 17ft 0kts
11-Jan-21 21:46 34.422694 -119.835599 359 17ft 0kts
11-Jan-21 21:46 34.422733 -119.835600 358 17ft 0kts
11-Jan-21 21:47 34.422733 -119.835600 358 17ft 0kts
11-Jan-21 21:48 34.423599 -119.837251 333 17ft 14kts
11-Jan-21 21:49 34.426161 -119.838132 344 17ft 0kts
11-Jan-21 21:50 34.426621 -119.838028 53 17ft 10kts
11-Jan-21 21:51 34.426968 -119.834729 10 17ft 0kts
11-Jan-21 21:52 34.426969 -119.834729 8 17ft 0kts
11-Jan-21 21:53 34.426969 -119.834729 8 17ft 0kts
11-Jan-21 21:54 34.427688 -119.851421 268 252ft 92kts
11-Jan-21 21:55 34.424624 -119.885534 257 1283ft 114kts
11-Jan-21 21:56 34.411063 -119.928254 201 1569ft 157kts
11-Jan-21 21:57 34.376468 -119.911654 152 2878ft 127kts
11-Jan-21 21:58 34.361764 -119.878553 77 3743ft 145kts
11-Jan-21 21:59 34.377477 -119.839461 70 4839ft 137kts
11-Jan-21 22:00 34.388954 -119.795456 76 5567ft 152kts
11-Jan-21 22:01 34.395379 -119.739536 82 5574ft 176kts
11-Jan-21 22:02 34.401853 -119.679898 82 5572ft 180kts
11-Jan-21 22:03 34.408443 -119.619341 82 5572ft 181kts
11-Jan-21 22:04 34.408500 -119.559284 105 5568ft 182kts
11-Jan-21 22:05 34.402754 -119.506822 94 5572ft 182kts
11-Jan-21 22:06 34.398368 -119.445599 94 5572ft 182kts
11-Jan-21 22:07 34.393966 -119.384391 94 5572ft 182kts
11-Jan-21 22:08 34.389525 -119.323096 95 5572ft 182kts
11-Jan-21 22:09 34.385057 -119.261916 95 5572ft 182kts
11-Jan-21 22:10 34.380475 -119.200520 95 5572ft 182kts
11-Jan-21 22:11 34.375941 -119.139423 95 5572ft 182kts
11-Jan-21 22:12 34.371372 -119.078087 95 5572ft 182kts
11-Jan-21 22:13 34.366805 -119.016761 95 5572ft 182kts
11-Jan-21 22:14 34.362156 -118.955561 95 5572ft 182kts
11-Jan-21 22:15 34.357559 -118.894384 95 5572ft 182kts
11-Jan-21 22:16 34.343044 -118.835487 109 5572ft 182kts
11-Jan-21 22:17 34.325908 -118.777734 109 5572ft 182kts
11-Jan-21 22:18 34.308700 -118.719839 109 5474ft 187kts
11-Jan-21 22:19 34.291276 -118.661335 109 5130ft 194kts
11-Jan-21 22:20 34.274506 -118.605143 109 4487ft 202kts
11-Jan-21 22:21 34.259296 -118.554237 109 3977ft 201kts
11-Jan-21 22:22 34.244747 -118.505528 109 3495ft 190kts
11-Jan-21 22:23 34.230514 -118.467157 128 3180ft 140kts
11-Jan-21 22:24 34.211671 -118.442569 134 2670ft 134kts
11-Jan-21 22:25 34.201578 -118.413132 103 1613ft 121kts
11-Jan-21 22:26 34.198317 -118.388034 92 1215ft 81kts
11-Jan-21 22:27 34.197951 -118.368564 89 823ft 76kts
11-Jan-21 22:28 34.197890 -118.360405 99 779ft 6kts
11-Jan-21 22:29 34.199780 -118.359340 56 779ft 10kts
11-Jan-21 22:30 34.200332 -118.359196 353 779ft 0kts
11-Jan-21 22:31 34.200445 -118.359211 353 779ft 0kts
11-Jan-21 22:32 34.200553 -118.359226 353 779ft 0kts
11-Jan-21 22:33 34.200658 -118.359240 353 779ft 0kts
11-Jan-21 22:34 34.200761 -118.359254 353 779ft 0kts
11-Jan-21 22:35 34.200862 -118.359268 353 779ft 0kts
11-Jan-21 22:36 34.200964 -118.359282 353 779ft 0kts
11-Jan-21 22:37 34.201065 -118.359296 353 779ft 0kts
11-Jan-21 22:38 34.201160 -118.359310 353 778ft 0kts
11-Jan-21 22:39 34.201160 -118.359310 353 778ft 0kts
11-Jan-21 22:40 34.201160 -118.359310 353 778ft 0kts
11-Jan-21 22:41 34.201160 -118.359310 353 778ft 0kts

Navigation Log

Ident Type
Flight plan parsing failed, navigation log unavailable